Time;durP1;ratioP1;P1;durP2;ratioP2;P2;SDS_P1;SDS_P2;PMS_P1;PMS_P2;Temp;Humidity;BMP_temperature;BMP_pressure;BME280_temperature;BME280_humidity;BME280_pressure;Samples;Min_cycle;Max_cycle;Signal;HPM_P1;HPM_P2
2022/07/15 00:02:00;;;;;;;5.20;2.37;;;;;;;19.27;72.72;97559.34;6214771;28;20770;-44
2022/07/15 00:05:05;;;;;;;3.03;2.60;;;;;;;19.00;74.52;97555.41;6232149;28;20223;-44
2022/07/15 00:08:07;;;;;;;1.40;1.30;;;;;;;18.87;74.12;97551.66;6231617;28;20223;-44
2022/07/15 00:11:09;;;;;;;1.80;1.70;;;;;;;18.87;73.97;97565.84;6214660;28;20600;-45
2022/07/15 00:14:11;;;;;;;2.97;2.50;;;;;;;18.86;74.36;97563.38;6230558;28;20230;-45
2022/07/15 00:17:13;;;;;;;3.17;2.60;;;;;;;18.82;74.36;97570.91;6231683;28;20235;-46
2022/07/15 00:20:17;;;;;;;2.43;2.17;;;;;;;18.80;75.30;97586.31;6232002;28;20257;-44
2022/07/15 00:23:19;;;;;;;3.50;3.20;;;;;;;18.75;75.29;97596.72;6231981;28;20769;-44
2022/07/15 00:26:21;;;;;;;3.00;2.27;;;;;;;18.59;75.53;97613.66;6231723;28;20625;-44
2022/07/15 00:29:25;;;;;;;2.30;2.10;;;;;;;18.47;75.83;97644.41;6230270;28;20228;-45
2022/07/15 00:32:27;;;;;;;3.77;1.50;;;;;;;18.31;76.34;97679.22;6210786;28;20235;-44
2022/07/15 00:35:32;;;;;;;2.43;1.60;;;;;;;18.32;76.31;97715.63;6230554;28;20590;-44
2022/07/15 00:38:34;;;;;;;2.40;1.20;;;;;;;18.40;76.25;97699.56;6231506;28;20232;-44
2022/07/15 00:41:40;;;;;;;1.87;1.30;;;;;;;18.46;75.54;97698.06;6209470;28;20252;-44
2022/07/15 00:44:42;;;;;;;1.70;1.60;;;;;;;18.52;75.84;97694.69;6226688;28;20228;-44
2022/07/15 00:47:52;;;;;;;1.80;1.40;;;;;;;18.53;76.78;97685.66;6230041;28;20231;-44
2022/07/15 00:50:54;;;;;;;3.40;2.00;;;;;;;18.41;77.79;97661.16;6229305;28;20232;-44
2022/07/15 00:53:57;;;;;;;1.97;1.70;;;;;;;18.31;78.58;97649.81;6230070;28;20228;-43
2022/07/15 00:57:00;;;;;;;1.73;1.63;;;;;;;18.30;79.25;97627.63;6231007;28;20258;-44
2022/07/15 01:00:04;;;;;;;5.87;1.87;;;;;;;18.28;79.88;97615.44;6230905;28;21744;-44
2022/07/15 01:03:07;;;;;;;1.47;1.30;;;;;;;18.11;80.53;97579.94;6220062;28;20221;-44
2022/07/15 01:06:09;;;;;;;3.20;1.77;;;;;;;18.07;80.35;97567.94;6230591;28;20216;-42
2022/07/15 01:09:11;;;;;;;2.37;1.60;;;;;;;17.96;80.64;97595.88;6229443;28;20694;-43
2022/07/15 01:12:13;;;;;;;3.07;1.60;;;;;;;17.95;81.24;97599.53;6222969;28;20208;-44
2022/07/15 01:15:17;;;;;;;3.50;1.90;;;;;;;17.96;81.34;97635.91;6230364;28;20223;-45
2022/07/15 01:18:19;;;;;;;2.50;1.73;;;;;;;17.96;81.93;97653.78;6230438;28;20232;-42
2022/07/15 01:21:22;;;;;;;2.30;2.10;;;;;;;17.91;82.03;97672.97;6228669;28;20317;-45
2022/07/15 01:24:26;;;;;;;2.37;1.73;;;;;;;17.86;82.55;97679.81;6230659;28;20687;-45
2022/07/15 01:27:45;;;;;;;1.70;1.60;;;;;;;17.87;82.96;97706.34;6230269;28;20212;-45
2022/07/15 01:30:54;;;;;;;2.10;1.90;;;;;;;17.87;82.77;97697.50;6216329;28;20578;-43
2022/07/15 01:34:00;;;;;;;2.40;1.80;;;;;;;17.89;82.12;97674.97;6231040;28;20231;-43
2022/07/15 01:37:03;;;;;;;2.33;1.97;;;;;;;17.93;82.00;97664.78;6228357;28;20319;-45
2022/07/15 01:40:07;;;;;;;3.07;2.27;;;;;;;17.98;82.28;97671.28;6219805;28;20228;-43
2022/07/15 01:43:09;;;;;;;1.93;1.80;;;;;;;17.99;82.12;97670.28;6221062;28;20224;-44
2022/07/15 01:46:12;;;;;;;2.10;2.00;;;;;;;18.00;82.36;97684.47;6230054;28;20235;-43
2022/07/15 01:49:31;;;;;;;3.47;2.20;;;;;;;17.92;82.53;97681.81;6228238;28;20273;-45
2022/07/15 01:52:46;;;;;;;2.03;1.90;;;;;;;17.85;82.85;97689.66;6229830;28;20236;-43
2022/07/15 01:55:48;;;;;;;2.27;2.07;;;;;;;17.82;83.45;97684.66;6228036;28;20228;-46
2022/07/15 01:58:51;;;;;;;3.37;2.13;;;;;;;17.78;83.66;97712.69;6228128;28;20230;-43
2022/07/15 02:01:55;;;;;;;2.33;2.13;;;;;;;17.69;83.57;97697.66;6228271;28;20727;-43
2022/07/15 02:04:58;;;;;;;3.37;3.03;;;;;;;17.60;84.41;97702.16;6227686;28;20223;-44
2022/07/15 02:08:01;;;;;;;2.47;2.27;;;;;;;17.58;84.59;97725.50;6227141;28;20703;-43
2022/07/15 02:11:04;;;;;;;3.03;2.57;;;;;;;17.51;83.39;97713.00;6212857;28;20605;-43
2022/07/15 02:14:11;;;;;;;4.20;2.67;;;;;;;17.42;83.44;97711.31;6220983;28;20718;-44
2022/07/15 02:17:15;;;;;;;4.03;3.57;;;;;;;17.29;83.30;97719.78;6228326;28;20300;-44
2022/07/15 02:20:17;;;;;;;3.00;2.70;;;;;;;17.12;81.74;97713.59;6227159;28;20703;-42
2022/07/15 02:23:20;;;;;;;4.80;3.33;;;;;;;16.90;81.04;97717.69;6227534;28;20239;-44
2022/07/15 02:26:22;;;;;;;3.80;2.90;;;;;;;16.73;81.40;97752.47;6227733;28;20215;-44
2022/07/15 02:29:25;;;;;;;5.40;3.80;;;;;;;16.57;82.76;97753.16;6226365;28;20220;-43
2022/07/15 02:32:27;;;;;;;5.03;3.43;;;;;;;16.42;83.50;97754.75;6230273;28;20739;-45
2022/07/15 02:35:30;;;;;;;3.90;3.50;;;;;;;16.32;84.08;97773.50;6228598;28;20240;-43
2022/07/15 02:38:33;;;;;;;5.03;3.70;;;;;;;16.27;84.81;97767.81;6233911;28;20247;-42
2022/07/15 02:41:35;;;;;;;3.63;3.30;;;;;;;16.14;84.27;97765.59;6206328;28;20231;-42
2022/07/15 02:44:43;;;;;;;4.47;4.07;;;;;;;16.10;84.79;97764.22;6201539;28;20238;-42
2022/07/15 02:47:46;;;;;;;5.27;4.03;;;;;;;16.06;85.18;97772.69;6227387;28;20228;-42
2022/07/15 02:50:53;;;;;;;4.80;4.37;;;;;;;15.95;85.17;97765.78;6226918;28;20236;-42
2022/07/15 02:53:55;;;;;;;4.10;3.80;;;;;;;15.92;86.19;97746.59;6228230;28;20234;-43
2022/07/15 02:56:58;;;;;;;5.60;4.17;;;;;;;15.97;86.74;97754.97;6227076;28;20231;-43
2022/07/15 03:00:04;;;;;;;5.67;4.57;;;;;;;15.97;86.90;97763.75;6207862;28;20543;-42
2022/07/15 03:03:06;;;;;;;5.37;4.87;;;;;;;15.86;86.82;97756.88;6233439;28;20295;-44
2022/07/15 03:06:11;;;;;;;5.23;4.80;;;;;;;15.84;87.38;97748.22;6233248;28;20216;-45
2022/07/15 03:09:13;;;;;;;5.50;5.00;;;;;;;15.86;87.84;97740.09;6229415;28;20400;-43
2022/07/15 03:12:15;;;;;;;5.73;4.20;;;;;;;15.86;87.92;97745.41;6221659;28;20215;-44
2022/07/15 03:15:17;;;;;;;5.90;4.37;;;;;;;15.82;88.04;97752.03;6233924;28;20706;-43
2022/07/15 03:18:21;;;;;;;5.00;4.60;;;;;;;15.85;88.29;97751.72;6232731;28;20241;-44
2022/07/15 03:21:24;;;;;;;8.03;4.97;;;;;;;15.78;88.32;97755.97;6233940;28;20595;-43
2022/07/15 03:24:26;;;;;;;5.67;4.57;;;;;;;15.77;88.17;97759.63;6232291;28;20224;-43
2022/07/15 03:27:30;;;;;;;5.03;4.53;;;;;;;15.74;87.73;97749.28;6231593;28;20227;-43
2022/07/15 03:30:34;;;;;;;6.10;5.50;;;;;;;15.75;87.67;97750.97;6220400;28;20236;-42
2022/07/15 03:33:36;;;;;;;6.00;5.37;;;;;;;15.73;87.94;97771.56;6225444;28;20228;-44
2022/07/15 03:36:40;;;;;;;6.53;5.83;;;;;;;15.72;88.05;97764.56;6231166;28;20243;-46
2022/07/15 03:39:42;;;;;;;5.47;5.03;;;;;;;15.75;88.42;97764.28;6225655;28;20242;-45
2022/07/15 03:42:44;;;;;;;7.93;6.20;;;;;;;15.73;88.25;97759.09;6217267;28;20719;-42
2022/07/15 03:45:47;;;;;;;8.33;5.90;;;;;;;15.78;88.13;97759.47;6231384;28;20634;-43
2022/07/15 03:48:53;;;;;;;8.63;6.73;;;;;;;15.78;88.65;97763.94;6198933;28;20233;-41
2022/07/15 03:51:56;;;;;;;9.63;6.23;;;;;;;15.76;88.78;97764.13;6231549;28;20239;-43
2022/07/15 03:55:00;;;;;;;7.73;6.23;;;;;;;15.80;88.64;97770.78;6228949;28;20290;-44
2022/07/15 03:58:05;;;;;;;6.47;5.87;;;;;;;15.83;88.96;97762.50;6208486;28;20726;-43
2022/07/15 04:01:08;;;;;;;7.80;7.10;;;;;;;15.84;89.20;97764.19;6230761;28;20237;-44
2022/07/15 04:04:11;;;;;;;7.33;6.63;;;;;;;15.90;89.42;97765.38;6231823;28;20708;-44
2022/07/15 04:07:13;;;;;;;7.67;6.77;;;;;;;15.88;89.37;97762.03;6230806;28;20733;-43
2022/07/15 04:10:15;;;;;;;8.53;6.50;;;;;;;15.88;89.33;97765.53;6228370;28;20246;-42
2022/07/15 04:13:18;;;;;;;7.40;6.70;;;;;;;15.87;89.55;97774.50;6230015;28;20409;-42
2022/07/15 04:16:20;;;;;;;8.10;7.40;;;;;;;15.81;89.78;97769.81;6230239;28;20235;-43
2022/07/15 04:19:25;;;;;;;7.77;6.97;;;;;;;15.85;90.25;97775.66;6230296;28;20232;-43
2022/07/15 04:22:42;;;;;;;7.77;7.07;;;;;;;15.84;89.82;97774.84;6230164;28;20231;-44
2022/07/15 04:25:44;;;;;;;8.67;7.40;;;;;;;15.82;90.05;97774.16;6230040;28;20232;-43
2022/07/15 04:28:49;;;;;;;8.50;7.67;;;;;;;15.78;90.16;97772.78;6232265;28;20331;-43
2022/07/15 04:31:52;;;;;;;8.33;7.33;;;;;;;15.73;90.40;97772.41;6224882;28;20242;-42
2022/07/15 04:35:02;;;;;;;8.17;7.40;;;;;;;15.71;90.45;97773.53;6229931;28;20243;-43
2022/07/15 04:38:05;;;;;;;7.93;7.20;;;;;;;15.68;90.44;97777.34;6229881;28;20341;-43
2022/07/15 04:41:08;;;;;;;8.20;7.40;;;;;;;15.74;89.60;97781.22;6219907;28;20734;-42
2022/07/15 04:44:10;;;;;;;9.53;7.10;;;;;;;15.75;90.12;97790.88;6229245;28;20262;-45
2022/07/15 04:47:12;;;;;;;9.47;8.50;;;;;;;15.76;90.39;97785.41;6228820;28;20231;-44
2022/07/15 04:53:40;;;;;;;8.73;7.57;;;;;;;15.93;90.10;97802.34;6231559;28;20232;-41
2022/07/15 04:56:42;;;;;;;8.57;7.77;;;;;;;16.06;89.54;97808.13;6228017;28;20239;-41
2022/07/15 04:59:44;;;;;;;10.10;7.77;;;;;;;16.17;89.35;97802.53;6230595;28;20240;-42
2022/07/15 05:02:50;;;;;;;7.63;6.90;;;;;;;16.26;88.69;97818.59;6224829;28;20584;-43
2022/07/15 05:05:53;;;;;;;8.93;7.40;;;;;;;16.32;88.42;97825.94;6218866;28;20258;-42
2022/07/15 05:09:03;;;;;;;7.90;7.07;;;;;;;16.36;88.27;97832.66;6207169;28;20275;-42
2022/07/15 05:12:08;;;;;;;8.47;7.37;;;;;;;16.44;88.01;97843.34;6194444;28;20192;-43
2022/07/15 05:15:20;;;;;;;7.83;6.80;;;;;;;16.43;87.42;97831.03;6229611;28;20215;-42
2022/07/15 05:18:22;;;;;;;7.50;6.70;;;;;;;16.42;87.59;97829.34;6229736;28;20710;-42
2022/07/15 05:21:27;;;;;;;7.07;6.37;;;;;;;16.35;87.71;97822.97;6228305;28;20224;-43
2022/07/15 05:24:30;;;;;;;6.93;6.33;;;;;;;16.32;87.75;97829.44;6228113;28;20626;-44
2022/07/15 05:27:34;;;;;;;8.70;6.37;;;;;;;16.30;87.72;97828.75;6228704;28;20244;-43
2022/07/15 05:30:37;;;;;;;8.63;6.87;;;;;;;16.25;87.61;97831.06;6216979;28;20240;-43
2022/07/15 05:33:41;;;;;;;7.97;6.60;;;;;;;16.21;87.57;97840.34;6217673;28;20600;-44
2022/07/15 05:36:44;;;;;;;6.77;6.17;;;;;;;16.26;87.77;97848.72;6229312;28;20777;-43
2022/07/15 05:39:57;;;;;;;6.30;5.60;;;;;;;16.34;87.53;97853.28;6221422;28;20235;-43
2022/07/15 05:43:06;;;;;;;7.30;6.60;;;;;;;16.34;86.59;97861.25;6209900;28;20228;-44
2022/07/15 05:46:13;;;;;;;7.33;6.50;;;;;;;16.34;86.54;97858.59;6227986;28;20239;-43
2022/07/15 05:49:24;;;;;;;6.30;5.70;;;;;;;16.40;85.76;97868.63;6230025;28;20591;-42
2022/07/15 05:52:28;;;;;;;6.40;5.77;;;;;;;16.45;85.76;97871.66;6229297;28;20236;-44
2022/07/15 05:55:31;;;;;;;5.70;5.20;;;;;;;16.46;85.04;97876.00;6227452;28;20235;-46
2022/07/15 05:58:33;;;;;;;7.60;5.67;;;;;;;16.56;85.31;97880.25;6228454;28;20251;-44
2022/07/15 06:01:54;;;;;;;5.83;5.33;;;;;;;16.49;84.71;97884.50;6227804;28;20232;-43
2022/07/15 06:04:57;;;;;;;4.97;4.53;;;;;;;16.37;83.78;97882.28;6229429;28;20845;-42
2022/07/15 06:08:00;;;;;;;6.23;4.73;;;;;;;16.34;84.38;97885.22;6228079;28;20235;-43
2022/07/15 06:11:08;;;;;;;5.40;4.90;;;;;;;16.33;84.32;97895.06;6220273;28;20232;-43
2022/07/15 06:14:10;;;;;;;6.87;4.73;;;;;;;16.21;84.11;97904.25;6227663;28;20329;-42
2022/07/15 06:17:14;;;;;;;5.73;4.10;;;;;;;16.16;81.84;97904.72;6229283;28;20261;-42
2022/07/15 06:20:16;;;;;;;5.43;4.60;;;;;;;16.23;82.74;97903.13;6227479;28;20238;-42
2022/07/15 06:23:20;;;;;;;6.00;4.37;;;;;;;16.28;82.16;97907.97;6228242;28;20710;-42
2022/07/15 06:26:29;;;;;;;5.10;4.10;;;;;;;16.38;81.31;97905.22;6228726;28;20300;-42
2022/07/15 06:29:34;;;;;;;7.27;4.77;;;;;;;16.44;81.68;97912.63;6224312;28;20450;-42
2022/07/15 06:32:37;;;;;;;4.33;3.93;;;;;;;16.39;80.24;97906.91;6219064;28;20234;-44
2022/07/15 06:35:39;;;;;;;6.37;4.13;;;;;;;16.42;79.47;97917.25;6228278;28;20244;-43
2022/07/15 06:38:49;;;;;;;4.87;3.87;;;;;;;16.51;80.37;97922.50;6227780;28;20455;-43
2022/07/15 06:41:52;;;;;;;4.37;3.97;;;;;;;16.56;78.95;97922.88;6211497;28;20593;-42
2022/07/15 06:44:56;;;;;;;4.73;3.50;;;;;;;16.67;78.72;97929.00;6227464;28;20683;-46
2022/07/15 06:47:59;;;;;;;4.83;3.47;;;;;;;16.73;79.49;97939.88;6227470;28;20240;-42
2022/07/15 06:51:01;;;;;;;5.57;3.83;;;;;;;16.66;76.77;97948.63;6226474;28;20250;-45
2022/07/15 06:54:04;;;;;;;6.30;3.30;;;;;;;16.80;77.00;97958.72;6228232;28;20211;-44
2022/07/15 06:57:08;;;;;;;6.57;3.77;;;;;;;17.22;76.34;97948.19;6218745;28;20656;-42
2022/07/15 07:00:16;;;;;;;7.07;3.40;;;;;;;17.81;73.09;97954.47;6227284;28;20361;-42
2022/07/15 08:02:48;;;;;;;4.57;2.00;;;;;;;21.78;50.29;97968.91;5364431;28;20232;-43
2022/07/15 08:05:53;;;;;;;4.40;1.60;;;;;;;21.98;50.86;97972.72;6225654;28;20711;-43
2022/07/15 08:08:55;;;;;;;3.97;1.67;;;;;;;22.44;50.76;97975.97;6229985;28;20719;-45
2022/07/15 08:11:57;;;;;;;3.03;1.63;;;;;;;22.84;48.90;97972.84;6220573;28;20937;-46
2022/07/15 08:14:59;;;;;;;4.57;1.70;;;;;;;22.85;48.52;97972.66;6230342;28;20235;-42
2022/07/15 08:18:02;;;;;;;5.40;1.80;;;;;;;22.97;47.79;97975.63;6229741;28;20238;-42
2022/07/15 08:21:05;;;;;;;2.97;1.70;;;;;;;22.76;47.82;97971.09;6231432;28;20212;-44
2022/07/15 08:24:07;;;;;;;4.00;1.50;;;;;;;23.07;47.74;97978.81;6231192;28;20211;-44
2022/07/15 08:27:09;;;;;;;2.17;1.50;;;;;;;23.43;47.13;97965.22;6229750;28;20216;-42
2022/07/15 08:30:11;;;;;;;2.90;1.27;;;;;;;23.62;45.64;97974.50;6221542;28;20224;-45
2022/07/15 08:33:14;;;;;;;3.13;1.43;;;;;;;24.12;45.86;97963.34;6225180;28;20223;-43
2022/07/15 08:36:16;;;;;;;3.73;1.30;;;;;;;24.51;44.45;97975.31;6229134;28;20212;-43
2022/07/15 08:39:18;;;;;;;2.73;1.50;;;;;;;24.22;43.95;97977.31;6227093;28;20236;-46
2022/07/15 08:42:21;;;;;;;3.73;1.40;;;;;;;24.33;42.10;97972.34;6215217;28;20243;-43
2022/07/15 08:45:23;;;;;;;3.80;1.30;;;;;;;24.55;42.34;97966.59;6230156;28;20543;-44
2022/07/15 08:48:29;;;;;;;2.83;1.37;;;;;;;24.73;41.89;97947.13;6231466;28;20718;-43
2022/07/15 08:51:36;;;;;;;2.97;1.30;;;;;;;24.62;42.10;97953.94;6230130;28;20282;-44
2022/07/15 08:54:38;;;;;;;3.67;1.27;;;;;;;24.90;43.01;97947.53;6230623;28;20746;-45
2022/07/15 08:57:44;;;;;;;4.93;1.30;;;;;;;24.94;40.81;97952.34;6230612;28;20235;-43
2022/07/15 09:00:46;;;;;;;4.75;1.75;;;;;;;25.15;41.12;97955.88;6230009;28;20251;-42
2022/07/15 09:03:48;;;;;;;4.43;1.23;;;;;;;24.90;41.43;97952.94;6231071;28;20247;-44
2022/07/15 09:06:51;;;;;;;3.58;1.48;;;;;;;24.66;40.72;97940.84;6229568;28;20239;-44
2022/07/15 09:09:53;;;;;;;3.17;1.45;;;;;;;25.24;41.47;97954.63;6223805;28;20263;-44
2022/07/15 09:12:55;;;;;;;3.22;1.35;;;;;;;25.45;38.55;97946.28;6209997;28;20224;-44
2022/07/15 09:16:04;;;;;;;3.03;1.30;;;;;;;25.52;39.03;97941.69;6230733;28;20232;-44
2022/07/15 09:19:08;;;;;;;2.97;1.40;;;;;;;25.95;38.58;97950.13;6230052;28;20254;-43
2022/07/15 09:22:11;;;;;;;2.30;1.63;;;;;;;26.10;40.55;97952.53;6229514;28;20737;-43
2022/07/15 09:25:13;;;;;;;3.00;1.30;;;;;;;26.18;38.07;97955.00;6211557;28;20239;-47
2022/07/15 09:28:17;;;;;;;2.22;1.25;;;;;;;26.50;37.44;97955.06;6229341;28;20240;-46
2022/07/15 09:36:01;;;;;;;1.90;1.15;;;;;;;27.26;36.36;97949.50;6220675;28;20320;-43
2022/07/15 09:38:40;;;;;;;5.20;1.40;;;;;;;27.73;34.98;97951.56;6215889;28;20236;-47
2022/07/15 09:41:44;;;;;;;1.92;1.20;;;;;;;28.09;35.05;97947.16;6224643;28;20598;-48
2022/07/15 09:44:46;;;;;;;3.95;1.23;;;;;;;28.05;35.92;97943.28;6228951;28;20586;-44
2022/07/15 09:48:14;;;;;;;2.42;1.40;;;;;;;27.52;35.43;97954.69;6229056;28;20279;-44
2022/07/15 09:51:17;;;;;;;3.50;1.35;;;;;;;27.70;35.00;97953.91;6228276;28;20216;-47
2022/07/15 09:54:19;;;;;;;2.67;1.30;;;;;;;27.70;35.19;97953.91;6228734;28;20227;-46
2022/07/15 09:57:21;;;;;;;2.65;1.25;;;;;;;27.74;34.55;97949.69;6227714;28;20238;-43
2022/07/15 10:00:23;;;;;;;6.00;1.80;;;;;;;27.83;33.94;97935.59;6227094;28;20235;-45
2022/07/15 10:03:26;;;;;;;4.32;1.30;;;;;;;27.78;34.33;97948.16;6180514;28;20278;-47
2022/07/15 10:06:28;;;;;;;2.17;1.27;;;;;;;27.40;35.73;97943.75;6221785;28;20711;-47
2022/07/15 10:09:33;;;;;;;2.55;1.48;;;;;;;27.68;35.06;97940.56;6224896;28;20255;-44
2022/07/15 10:12:58;;;;;;;4.85;1.27;;;;;;;28.34;31.95;97936.22;6218755;28;20365;-46
2022/07/15 10:16:27;;;;;;;1.98;1.20;;;;;;;28.14;33.98;97934.59;6213912;28;20303;-47
2022/07/15 10:19:40;;;;;;;3.17;1.25;;;;;;;28.17;33.90;97938.72;6219190;28;20381;-47
2022/07/15 10:23:01;;;;;;;3.97;1.52;;;;;;;27.14;35.44;97938.59;6228622;28;20244;-47
2022/07/15 10:26:51;;;;;;;3.10;1.38;;;;;;;28.00;34.48;97932.25;6228655;28;20240;-44
2022/07/15 10:29:54;;;;;;;3.03;1.42;;;;;;;27.49;34.51;97945.09;6222012;28;20666;-45
2022/07/15 10:33:13;;;;;;;2.08;1.20;;;;;;;26.77;36.60;97941.13;6217636;28;20685;-46
2022/07/15 10:36:15;;;;;;;3.00;1.50;;;;;;;25.61;37.65;97935.03;6228008;28;20243;-48
2022/07/15 10:39:20;;;;;;;2.08;1.45;;;;;;;25.76;38.04;97937.47;6225649;28;20222;-43
2022/07/15 10:42:24;;;;;;;3.08;1.38;;;;;;;25.97;37.82;97937.19;6208183;28;20231;-45
2022/07/15 10:45:26;;;;;;;2.55;1.65;;;;;;;25.78;37.15;97929.16;6228318;28;20239;-46
2022/07/15 10:48:30;;;;;;;2.40;1.45;;;;;;;26.90;36.11;97931.25;6228278;28;20766;-47
2022/07/15 10:51:35;;;;;;;3.13;1.27;;;;;;;27.66;35.73;97930.97;6228159;28;20710;-47
2022/07/15 10:54:41;;;;;;;3.63;1.48;;;;;;;27.68;34.47;97939.72;6228302;28;20239;-43
2022/07/15 10:57:50;;;;;;;4.03;1.73;;;;;;;27.73;34.60;97940.72;6227792;28;20243;-43
2022/07/15 11:00:52;;;;;;;5.13;1.40;;;;;;;27.37;34.92;97936.03;6228249;28;20344;-42
2022/07/15 11:04:13;;;;;;;3.15;1.48;;;;;;;27.37;34.59;97930.63;6228141;28;20242;-47
2022/07/15 11:07:16;;;;;;;2.35;1.58;;;;;;;26.81;36.03;97927.97;6227428;28;20231;-45
2022/07/15 11:10:19;;;;;;;2.05;1.80;;;;;;;26.90;35.80;97932.06;6225468;28;20224;-45
2022/07/15 11:13:34;;;;;;;2.88;1.48;;;;;;;27.54;34.41;97936.31;6227832;28;20236;-45
2022/07/15 11:16:36;;;;;;;4.65;1.60;;;;;;;28.26;33.56;97924.63;6227394;28;20707;-45
2022/07/15 11:19:39;;;;;;;2.45;1.52;;;;;;;27.94;32.94;97919.59;6230423;28;20235;-45
2022/07/15 11:22:44;;;;;;;3.67;1.83;;;;;;;27.82;34.13;97923.09;6232399;28;20263;-47
2022/07/15 11:25:47;;;;;;;3.13;1.50;;;;;;;27.65;35.51;97927.44;6233408;28;20710;-46
2022/07/15 11:28:55;;;;;;;1.73;1.63;;;;;;;28.03;33.22;97926.38;6230341;28;20239;-46
2022/07/15 11:32:00;;;;;;;4.30;1.58;;;;;;;28.45;33.83;97930.81;6224043;28;20270;-43
2022/07/15 11:35:02;;;;;;;3.00;1.90;;;;;;;28.80;32.65;97922.81;6233012;28;20235;-44
2022/07/15 11:38:05;;;;;;;3.58;1.55;;;;;;;28.95;32.10;97923.19;6231779;28;20605;-43
2022/07/15 11:44:35;;;;;;;2.40;1.50;;;;;;;29.55;31.80;97905.81;6230128;28;20709;-48
2022/07/15 11:47:51;;;;;;;4.35;1.92;;;;;;;29.76;31.07;97909.81;6232088;28;20702;-44
2022/07/15 11:50:56;;;;;;;2.53;1.52;;;;;;;29.61;30.32;97907.59;6230198;28;20236;-45
2022/07/15 11:53:59;;;;;;;2.33;1.70;;;;;;;29.19;30.89;97913.16;6231373;28;20301;-46
2022/07/15 11:57:08;;;;;;;2.38;1.60;;;;;;;29.12;33.14;97908.91;6231044;28;20234;-44
2022/07/15 12:00:10;;;;;;;1.50;1.40;;;;;;;29.42;32.18;97911.53;6231132;28;20652;-47
2022/07/15 12:03:12;;;;;;;2.72;1.70;;;;;;;29.26;31.73;97911.13;6230050;28;20232;-45
2022/07/15 12:06:20;;;;;;;3.05;1.88;;;;;;;28.23;32.91;97908.81;6228850;28;20216;-46
2022/07/15 12:09:22;;;;;;;2.35;1.60;;;;;;;27.65;34.35;97913.88;6227834;28;20818;-47
2022/07/15 12:12:24;;;;;;;2.35;1.80;;;;;;;28.17;32.79;97907.00;6212244;28;20227;-46
2022/07/15 12:15:26;;;;;;;3.00;1.80;;;;;;;28.84;33.62;97905.00;6231500;28;20228;-44
2022/07/15 12:18:29;;;;;;;4.07;1.90;;;;;;;29.06;31.91;97902.50;6230031;28;20318;-46
2022/07/15 12:21:32;;;;;;;3.75;1.50;;;;;;;29.12;31.79;97908.91;6232910;28;20601;-43
2022/07/15 12:24:52;;;;;;;4.35;1.80;;;;;;;28.87;31.75;97903.69;6213227;28;20231;-46
2022/07/15 12:27:54;;;;;;;2.70;1.35;;;;;;;28.15;32.99;97900.13;6230353;28;20228;-44
2022/07/15 12:30:56;;;;;;;3.30;1.60;;;;;;;28.43;32.96;97903.09;6215890;28;20696;-44
2022/07/15 12:33:59;;;;;;;2.10;1.55;;;;;;;28.41;31.85;97894.34;6219862;28;21150;-44
2022/07/15 12:37:02;;;;;;;3.80;1.70;;;;;;;28.07;32.47;97900.41;6230695;28;20250;-45
2022/07/15 12:40:06;;;;;;;3.30;1.90;;;;;;;27.79;32.29;97901.00;6228887;28;20738;-44
2022/07/15 12:43:09;;;;;;;3.95;1.77;;;;;;;27.91;33.30;97888.31;6231110;28;20718;-44
2022/07/15 12:46:11;;;;;;;2.78;1.77;;;;;;;28.23;31.66;97892.53;6230822;28;20734;-45
2022/07/15 12:49:40;;;;;;;2.58;1.75;;;;;;;29.10;30.87;97890.13;6234657;28;20231;-48
2022/07/15 12:52:44;;;;;;;3.58;1.60;;;;;;;30.20;30.03;97884.63;6230366;28;20318;-44
2022/07/15 12:55:52;;;;;;;2.47;1.50;;;;;;;30.39;29.04;97879.78;6230377;28;20236;-43
2022/07/15 12:58:54;;;;;;;3.10;1.42;;;;;;;30.28;29.57;97886.13;6230250;28;20236;-45
2022/07/15 13:02:14;;;;;;;3.00;1.92;;;;;;;30.06;29.75;97885.97;6230132;28;20235;-48
2022/07/15 13:05:17;;;;;;;2.78;1.30;;;;;;;29.82;31.21;97889.81;6228906;28;20269;-44
2022/07/15 13:08:22;;;;;;;2.00;1.33;;;;;;;29.13;31.58;97886.09;6231149;28;20273;-43
2022/07/15 13:11:24;;;;;;;2.10;1.75;;;;;;;29.19;31.55;97885.16;6223131;28;20582;-44
2022/07/15 13:14:26;;;;;;;2.05;1.42;;;;;;;29.47;31.92;97882.53;6234835;28;20228;-43
2022/07/15 13:17:28;;;;;;;3.55;1.70;;;;;;;29.43;31.12;97886.00;6230048;28;20238;-46
2022/07/15 13:20:31;;;;;;;2.63;1.60;;;;;;;29.63;30.88;97889.16;6229743;28;20390;-45
2022/07/15 13:23:33;;;;;;;4.22;1.60;;;;;;;29.90;29.92;97879.38;6228236;28;20788;-45
2022/07/15 13:26:35;;;;;;;2.28;1.52;;;;;;;28.87;30.41;97879.22;6226844;28;20227;-45
2022/07/15 13:29:38;;;;;;;2.80;1.60;;;;;;;28.00;31.44;97877.97;6226168;28;20227;-45
2022/07/15 13:32:40;;;;;;;4.93;1.70;;;;;;;28.15;31.99;97879.22;6218721;28;20243;-44
2022/07/15 13:35:42;;;;;;;1.92;1.48;;;;;;;28.62;31.12;97872.09;6227914;28;20258;-44
2022/07/15 13:38:44;;;;;;;3.30;1.80;;;;;;;29.17;30.56;97879.09;6228474;28;20273;-47
2022/07/15 13:41:46;;;;;;;2.95;1.65;;;;;;;29.10;31.31;97876.53;6209792;28;20228;-45
2022/07/15 13:44:48;;;;;;;1.80;1.40;;;;;;;29.25;30.58;97874.13;6228918;28;20227;-44
2022/07/15 13:47:50;;;;;;;1.42;1.33;;;;;;;29.33;31.20;97876.53;6226897;28;20587;-46
2022/07/15 13:54:13;;;;;;;2.85;1.42;;;;;;;29.44;31.97;97872.16;6203774;28;20233;-45
2022/07/15 13:57:16;;;;;;;2.00;1.60;;;;;;;29.79;29.66;97873.97;6229421;28;20238;-47
2022/07/15 14:00:21;;;;;;;3.55;1.67;;;;;;;30.48;28.82;97880.22;6229661;28;20231;-43
2022/07/15 14:03:23;;;;;;;3.55;1.80;;;;;;;30.90;27.68;97870.63;6229710;28;20235;-43
2022/07/15 14:06:26;;;;;;;2.92;1.30;;;;;;;30.84;28.41;97870.78;6229325;28;20707;-45
2022/07/15 14:09:28;;;;;;;3.40;1.50;;;;;;;31.79;26.25;97865.94;6225214;28;20225;-46
2022/07/15 14:12:31;;;;;;;2.58;1.85;;;;;;;33.77;25.21;97862.19;6207303;28;20279;-42
2022/07/15 14:15:33;;;;;;;4.82;1.60;;;;;;;34.61;22.34;97872.03;6229240;28;20257;-44
2022/07/15 14:18:49;;;;;;;3.13;1.67;;;;;;;35.82;20.85;97865.63;6229530;28;20247;-44
2022/07/15 14:21:52;;;;;;;2.92;1.45;;;;;;;35.65;20.43;97862.34;6228891;28;20240;-46
2022/07/15 14:24:55;;;;;;;3.50;1.77;;;;;;;37.40;19.48;97859.84;6227922;28;20706;-45
2022/07/15 14:27:57;;;;;;;3.65;1.45;;;;;;;37.26;18.54;97855.00;6229022;28;20710;-48
2022/07/15 14:30:59;;;;;;;1.42;1.30;;;;;;;39.02;17.43;97852.13;6224905;28;20259;-44
2022/07/15 14:34:01;;;;;;;2.10;1.60;;;;;;;40.26;16.23;97847.44;6228439;28;20833;-45
2022/07/15 14:37:03;;;;;;;1.98;1.27;;;;;;;41.57;15.71;97846.97;6228521;28;20239;-46
2022/07/15 14:40:25;;;;;;;2.22;1.50;;;;;;;41.45;14.76;97851.44;6222550;28;20571;-45
2022/07/15 14:43:28;;;;;;;3.50;1.58;;;;;;;40.65;14.96;97844.06;6228674;28;20729;-45
2022/07/15 14:46:30;;;;;;;3.30;1.60;;;;;;;40.93;15.36;97840.88;6227548;28;20646;-45
2022/07/15 14:49:32;;;;;;;2.20;1.52;;;;;;;40.92;15.65;97841.22;6228499;28;20231;-44
2022/07/15 14:52:34;;;;;;;3.30;1.67;;;;;;;41.48;14.39;97832.22;6230081;28;20750;-42
2022/07/15 14:55:36;;;;;;;2.40;1.52;;;;;;;40.85;14.81;97836.09;6216200;28;20315;-42
2022/07/15 14:58:38;;;;;;;4.20;1.70;;;;;;;40.94;14.81;97833.38;6224197;28;20321;-42
2022/07/15 15:01:45;;;;;;;5.13;1.70;;;;;;;40.72;14.31;97828.69;6230613;28;20710;-44
2022/07/15 15:04:48;;;;;;;1.90;1.38;;;;;;;41.08;13.91;97823.03;6233145;28;20746;-47
2022/07/15 15:07:50;;;;;;;2.47;1.40;;;;;;;40.36;15.67;97823.16;6225882;28;20284;-43
2022/07/15 15:10:52;;;;;;;2.97;2.08;;;;;;;39.90;15.26;97831.66;6219544;28;20228;-44
2022/07/15 15:13:55;;;;;;;4.60;1.48;;;;;;;39.94;15.29;97829.06;6221193;28;20239;-45
2022/07/15 15:16:57;;;;;;;6.05;1.92;;;;;;;40.37;14.78;97818.44;6231011;28;20305;-45
2022/07/15 15:20:06;;;;;;;3.65;2.03;;;;;;;40.04;14.67;97831.63;6232893;28;20249;-43
2022/07/15 15:23:08;;;;;;;2.53;1.75;;;;;;;39.80;15.26;97831.84;6233013;28;20285;-44
2022/07/15 15:26:22;;;;;;;1.70;1.60;;;;;;;40.51;15.64;97833.06;6232328;28;20227;-44
2022/07/15 15:29:25;;;;;;;2.67;1.77;;;;;;;41.17;14.72;97826.72;6231305;28;20231;-45
2022/07/15 15:32:29;;;;;;;2.63;1.60;;;;;;;40.45;14.76;97823.22;6233428;28;20238;-43
2022/07/15 15:35:31;;;;;;;2.38;2.00;;;;;;;39.69;14.98;97827.66;6233363;28;20315;-45
2022/07/15 15:38:33;;;;;;;1.63;1.52;;;;;;;39.26;15.47;97832.63;6232348;28;20726;-43
2022/07/15 15:41:36;;;;;;;2.88;2.30;;;;;;;38.05;16.19;97828.72;6211139;28;20239;-43
2022/07/15 15:44:38;;;;;;;2.20;2.00;;;;;;;33.57;20.02;97831.97;6231717;28;20235;-47